sensor_id;sensor_type;location;lat;lon;timestamp;pressure;altitude;pressure_sealevel;temperature;humidity
13348;BME280;6743;49.934;9.138;2023-05-25T00:01:00;101072.59;;;10.25;100.00
13348;BME280;6743;49.934;9.138;2023-05-25T00:03:26;101069.66;;;10.28;100.00
13348;BME280;6743;49.934;9.138;2023-05-25T00:05:52;101084.19;;;10.24;100.00
13348;BME280;6743;49.934;9.138;2023-05-25T00:08:19;101085.84;;;10.15;100.00
13348;BME280;6743;49.934;9.138;2023-05-25T00:10:45;101078.19;;;10.12;100.00
13348;BME280;6743;49.934;9.138;2023-05-25T00:13:11;101077.19;;;10.13;100.00
13348;BME280;6743;49.934;9.138;2023-05-25T00:15:37;101078.31;;;10.11;100.00
13348;BME280;6743;49.934;9.138;2023-05-25T00:18:03;101069.12;;;10.15;100.00
13348;BME280;6743;49.934;9.138;2023-05-25T00:20:29;101069.50;;;10.10;100.00
13348;BME280;6743;49.934;9.138;2023-05-25T00:22:57;101068.84;;;10.08;100.00
13348;BME280;6743;49.934;9.138;2023-05-25T00:25:24;101066.47;;;10.05;100.00
13348;BME280;6743;49.934;9.138;2023-05-25T00:27:50;101064.37;;;9.99;100.00
13348;BME280;6743;49.934;9.138;2023-05-25T00:30:16;101068.31;;;9.95;100.00
13348;BME280;6743;49.934;9.138;2023-05-25T00:32:42;101064.81;;;9.95;100.00
13348;BME280;6743;49.934;9.138;2023-05-25T00:35:08;101065.09;;;9.92;100.00
13348;BME280;6743;49.934;9.138;2023-05-25T00:37:34;101065.50;;;9.87;100.00
13348;BME280;6743;49.934;9.138;2023-05-25T00:40:00;101069.97;;;9.77;100.00
13348;BME280;6743;49.934;9.138;2023-05-25T00:42:27;101065.50;;;9.77;100.00
13348;BME280;6743;49.934;9.138;2023-05-25T00:44:54;101063.56;;;9.70;100.00
13348;BME280;6743;49.934;9.138;2023-05-25T00:47:22;101073.03;;;9.63;100.00
13348;BME280;6743;49.934;9.138;2023-05-25T00:49:48;101074.00;;;9.62;100.00
13348;BME280;6743;49.934;9.138;2023-05-25T00:52:15;101072.75;;;9.56;100.00
13348;BME280;6743;49.934;9.138;2023-05-25T00:54:42;101067.75;;;9.53;100.00
13348;BME280;6743;49.934;9.138;2023-05-25T00:57:10;101064.25;;;9.53;100.00
13348;BME280;6743;49.934;9.138;2023-05-25T00:59:43;101064.53;;;9.49;100.00
13348;BME280;6743;49.934;9.138;2023-05-25T01:02:12;101062.00;;;9.48;100.00
13348;BME280;6743;49.934;9.138;2023-05-25T01:04:44;101076.75;;;9.41;100.00
13348;BME280;6743;49.934;9.138;2023-05-25T01:07:13;101070.63;;;9.40;100.00
13348;BME280;6743;49.934;9.138;2023-05-25T01:09:43;101070.91;;;9.37;100.00
13348;BME280;6743;49.934;9.138;2023-05-25T01:12:10;101081.66;;;9.36;100.00
13348;BME280;6743;49.934;9.138;2023-05-25T01:14:40;101076.06;;;9.29;100.00
13348;BME280;6743;49.934;9.138;2023-05-25T01:17:07;101085.25;;;9.25;100.00
13348;BME280;6743;49.934;9.138;2023-05-25T01:19:34;101082.31;;;9.19;100.00
13348;BME280;6743;49.934;9.138;2023-05-25T01:22:10;101063.63;;;9.11;100.00
13348;BME280;6743;49.934;9.138;2023-05-25T01:24:43;101085.38;;;9.24;100.00
13348;BME280;6743;49.934;9.138;2023-05-25T01:27:14;101083.16;;;9.29;100.00
13348;BME280;6743;49.934;9.138;2023-05-25T01:29:44;101087.50;;;9.30;100.00
13348;BME280;6743;49.934;9.138;2023-05-25T01:32:11;101094.03;;;9.26;100.00
13348;BME280;6743;49.934;9.138;2023-05-25T01:34:39;101075.06;;;9.21;100.00
13348;BME280;6743;49.934;9.138;2023-05-25T01:37:06;101088.72;;;9.16;100.00
13348;BME280;6743;49.934;9.138;2023-05-25T01:39:32;101080.47;;;9.09;100.00
13348;BME280;6743;49.934;9.138;2023-05-25T01:41:58;101084.37;;;9.05;100.00
13348;BME280;6743;49.934;9.138;2023-05-25T01:44:26;101077.94;;;8.98;100.00
13348;BME280;6743;49.934;9.138;2023-05-25T01:46:59;101086.97;;;8.96;100.00
13348;BME280;6743;49.934;9.138;2023-05-25T01:49:31;101086.56;;;8.91;100.00
13348;BME280;6743;49.934;9.138;2023-05-25T01:52:09;101097.38;;;8.88;100.00
13348;BME280;6743;49.934;9.138;2023-05-25T01:54:41;101088.63;;;8.87;100.00
13348;BME280;6743;49.934;9.138;2023-05-25T01:57:12;101090.72;;;8.84;100.00
13348;BME280;6743;49.934;9.138;2023-05-25T01:59:41;101094.56;;;8.80;100.00
13348;BME280;6743;49.934;9.138;2023-05-25T02:02:08;101090.53;;;8.76;100.00
13348;BME280;6743;49.934;9.138;2023-05-25T02:04:34;101088.84;;;8.75;100.00
13348;BME280;6743;49.934;9.138;2023-05-25T02:07:02;101083.00;;;8.71;100.00
13348;BME280;6743;49.934;9.138;2023-05-25T02:09:29;101086.72;;;8.68;100.00
13348;BME280;6743;49.934;9.138;2023-05-25T02:11:55;101094.91;;;8.65;100.00
13348;BME280;6743;49.934;9.138;2023-05-25T02:14:21;101098.81;;;8.61;100.00
13348;BME280;6743;49.934;9.138;2023-05-25T02:16:47;101101.56;;;8.60;100.00
13348;BME280;6743;49.934;9.138;2023-05-25T02:19:13;101101.84;;;8.57;100.00
13348;BME280;6743;49.934;9.138;2023-05-25T02:21:40;101104.03;;;8.52;100.00
13348;BME280;6743;49.934;9.138;2023-05-25T02:24:06;101103.34;;;8.50;100.00
13348;BME280;6743;49.934;9.138;2023-05-25T02:26:34;101093.75;;;8.49;100.00
13348;BME280;6743;49.934;9.138;2023-05-25T02:29:00;101095.09;;;8.43;100.00
13348;BME280;6743;49.934;9.138;2023-05-25T02:31:26;101100.75;;;8.39;100.00
13348;BME280;6743;49.934;9.138;2023-05-25T02:33:52;101098.25;;;8.37;100.00
13348;BME280;6743;49.934;9.138;2023-05-25T02:36:18;101080.84;;;8.35;100.00
13348;BME280;6743;49.934;9.138;2023-05-25T02:38:45;101090.72;;;8.33;100.00
13348;BME280;6743;49.934;9.138;2023-05-25T02:41:14;101085.41;;;8.33;100.00
13348;BME280;6743;49.934;9.138;2023-05-25T02:43:41;101085.91;;;8.26;100.00
13348;BME280;6743;49.934;9.138;2023-05-25T02:46:07;101079.53;;;8.29;100.00
13348;BME280;6743;49.934;9.138;2023-05-25T02:48:33;101080.87;;;8.23;100.00
13348;BME280;6743;49.934;9.138;2023-05-25T02:50:59;101079.06;;;8.24;100.00
13348;BME280;6743;49.934;9.138;2023-05-25T02:53:25;101094.09;;;8.23;100.00
13348;BME280;6743;49.934;9.138;2023-05-25T02:55:51;101094.94;;;8.24;100.00
13348;BME280;6743;49.934;9.138;2023-05-25T02:58:17;101085.19;;;8.24;100.00
13348;BME280;6743;49.934;9.138;2023-05-25T03:00:44;101089.78;;;8.22;100.00
13348;BME280;6743;49.934;9.138;2023-05-25T03:03:11;101093.66;;;8.18;100.00
13348;BME280;6743;49.934;9.138;2023-05-25T03:05:37;101096.28;;;8.18;100.00
13348;BME280;6743;49.934;9.138;2023-05-25T03:08:03;101093.91;;;8.15;100.00
13348;BME280;6743;49.934;9.138;2023-05-25T03:10:29;101095.25;;;8.10;100.00
13348;BME280;6743;49.934;9.138;2023-05-25T03:12:55;101101.87;;;8.04;100.00
13348;BME280;6743;49.934;9.138;2023-05-25T03:15:21;101097.87;;;8.10;100.00
13348;BME280;6743;49.934;9.138;2023-05-25T03:17:48;101101.66;;;8.07;100.00
13348;BME280;6743;49.934;9.138;2023-05-25T03:20:14;101109.69;;;8.06;100.00
13348;BME280;6743;49.934;9.138;2023-05-25T03:22:41;101108.84;;;8.05;100.00
13348;BME280;6743;49.934;9.138;2023-05-25T03:25:08;101119.09;;;7.99;100.00
13348;BME280;6743;49.934;9.138;2023-05-25T03:27:36;101119.50;;;7.94;100.00
13348;BME280;6743;49.934;9.138;2023-05-25T03:30:03;101123.34;;;7.90;100.00
13348;BME280;6743;49.934;9.138;2023-05-25T03:32:29;101125.28;;;7.88;100.00
13348;BME280;6743;49.934;9.138;2023-05-25T03:34:57;101120.81;;;7.88;100.00
13348;BME280;6743;49.934;9.138;2023-05-25T03:37:23;101120.81;;;7.88;100.00
13348;BME280;6743;49.934;9.138;2023-05-25T03:39:49;101119.16;;;7.87;100.00
13348;BME280;6743;49.934;9.138;2023-05-25T03:42:15;101120.12;;;7.86;100.00
13348;BME280;6743;49.934;9.138;2023-05-25T03:44:41;101120.00;;;7.88;100.00
13348;BME280;6743;49.934;9.138;2023-05-25T03:47:07;101113.72;;;7.89;100.00
13348;BME280;6743;49.934;9.138;2023-05-25T03:49:33;101117.81;;;7.93;100.00
13348;BME280;6743;49.934;9.138;2023-05-25T03:52:00;101120.31;;;7.95;100.00
13348;BME280;6743;49.934;9.138;2023-05-25T03:54:26;101108.66;;;7.97;100.00
13348;BME280;6743;49.934;9.138;2023-05-25T03:56:52;101122.31;;;8.02;100.00
13348;BME280;6743;49.934;9.138;2023-05-25T03:59:18;101122.19;;;8.04;100.00
13348;BME280;6743;49.934;9.138;2023-05-25T04:01:44;101119.09;;;7.99;100.00
13348;BME280;6743;49.934;9.138;2023-05-25T04:04:10;101122.81;;;7.96;100.00
13348;BME280;6743;49.934;9.138;2023-05-25T04:06:37;101121.03;;;7.97;100.00
13348;BME280;6743;49.934;9.138;2023-05-25T04:09:04;101118.03;;;7.90;100.00
13348;BME280;6743;49.934;9.138;2023-05-25T04:11:30;101122.16;;;7.83;100.00
13348;BME280;6743;49.934;9.138;2023-05-25T04:13:56;101133.31;;;7.86;100.00
13348;BME280;6743;49.934;9.138;2023-05-25T04:16:22;101129.13;;;7.84;100.00
13348;BME280;6743;49.934;9.138;2023-05-25T04:18:50;101133.31;;;7.86;100.00
13348;BME280;6743;49.934;9.138;2023-05-25T04:21:16;101134.03;;;7.88;100.00
13348;BME280;6743;49.934;9.138;2023-05-25T04:23:42;101136.09;;;7.85;100.00
13348;BME280;6743;49.934;9.138;2023-05-25T04:26:09;101136.81;;;7.87;100.00
13348;BME280;6743;49.934;9.138;2023-05-25T04:28:35;101145.44;;;7.89;100.00
13348;BME280;6743;49.934;9.138;2023-05-25T04:31:01;101146.03;;;7.93;100.00
13348;BME280;6743;49.934;9.138;2023-05-25T04:33:28;101149.50;;;7.93;100.00
13348;BME280;6743;49.934;9.138;2023-05-25T04:35:54;101156.22;;;7.97;100.00
13348;BME280;6743;49.934;9.138;2023-05-25T04:38:22;101164.00;;;7.99;100.00
13348;BME280;6743;49.934;9.138;2023-05-25T04:40:49;101161.94;;;8.02;100.00
13348;BME280;6743;49.934;9.138;2023-05-25T04:43:19;101155.97;;;8.00;100.00
13348;BME280;6743;49.934;9.138;2023-05-25T04:45:46;101157.84;;;8.09;100.00
13348;BME280;6743;49.934;9.138;2023-05-25T04:48:17;101159.53;;;8.10;100.00
13348;BME280;6743;49.934;9.138;2023-05-25T04:50:52;101172.22;;;8.16;100.00
13348;BME280;6743;49.934;9.138;2023-05-25T04:53:21;101165.84;;;8.19;100.00
13348;BME280;6743;49.934;9.138;2023-05-25T04:55:47;101161.72;;;8.26;100.00
13348;BME280;6743;49.934;9.138;2023-05-25T04:58:13;101172.06;;;8.29;100.00
13348;BME280;6743;49.934;9.138;2023-05-25T05:00:40;101155.84;;;8.34;100.00
13348;BME280;6743;49.934;9.138;2023-05-25T05:03:07;101163.00;;;8.43;100.00
13348;BME280;6743;49.934;9.138;2023-05-25T05:05:33;101169.47;;;8.50;100.00
13348;BME280;6743;49.934;9.138;2023-05-25T05:08:01;101162.69;;;8.57;100.00
13348;BME280;6743;49.934;9.138;2023-05-25T05:10:28;101181.00;;;8.69;100.00
13348;BME280;6743;49.934;9.138;2023-05-25T05:12:54;101175.91;;;8.78;100.00
13348;BME280;6743;49.934;9.138;2023-05-25T05:15:20;101175.63;;;8.81;100.00
13348;BME280;6743;49.934;9.138;2023-05-25T05:17:47;101178.59;;;8.87;100.00
13348;BME280;6743;49.934;9.138;2023-05-25T05:20:13;101181.53;;;8.94;100.00
13348;BME280;6743;49.934;9.138;2023-05-25T05:22:39;101189.47;;;8.94;100.00
13348;BME280;6743;49.934;9.138;2023-05-25T05:25:06;101194.22;;;8.90;100.00
13348;BME280;6743;49.934;9.138;2023-05-25T05:27:32;101186.72;;;8.95;100.00
13348;BME280;6743;49.934;9.138;2023-05-25T05:29:58;101193.09;;;8.93;100.00
13348;BME280;6743;49.934;9.138;2023-05-25T05:32:25;101197.03;;;8.98;100.00
13348;BME280;6743;49.934;9.138;2023-05-25T05:34:51;101194.41;;;8.98;100.00
13348;BME280;6743;49.934;9.138;2023-05-25T05:37:18;101197.19;;;9.06;100.00
13348;BME280;6743;49.934;9.138;2023-05-25T05:39:44;101194.19;;;9.11;100.00
13348;BME280;6743;49.934;9.138;2023-05-25T05:42:10;101194.06;;;9.22;100.00
13348;BME280;6743;49.934;9.138;2023-05-25T05:44:36;101192.25;;;9.23;100.00
13348;BME280;6743;49.934;9.138;2023-05-25T05:47:03;101195.22;;;9.29;100.00
13348;BME280;6743;49.934;9.138;2023-05-25T05:49:31;101194.81;;;9.34;100.00
13348;BME280;6743;49.934;9.138;2023-05-25T05:51:59;101184.38;;;9.42;100.00
13348;BME280;6743;49.934;9.138;2023-05-25T05:54:25;101187.38;;;9.58;100.00
13348;BME280;6743;49.934;9.138;2023-05-25T05:56:52;101183.34;;;9.64;100.00
13348;BME280;6743;49.934;9.138;2023-05-25T05:59:20;101186.97;;;9.72;100.00
13348;BME280;6743;49.934;9.138;2023-05-25T06:01:46;101192.28;;;9.82;100.00
13348;BME280;6743;49.934;9.138;2023-05-25T06:04:12;101191.47;;;9.91;100.00
13348;BME280;6743;49.934;9.138;2023-05-25T06:06:40;101195.12;;;10.00;100.00
13348;BME280;6743;49.934;9.138;2023-05-25T06:09:08;101196.78;;;10.10;100.00
13348;BME280;6743;49.934;9.138;2023-05-25T06:11:35;101206.59;;;10.19;100.00
13348;BME280;6743;49.934;9.138;2023-05-25T06:14:01;101202.28;;;10.28;100.00
13348;BME280;6743;49.934;9.138;2023-05-25T06:16:28;101195.31;;;10.37;100.00
13348;BME280;6743;49.934;9.138;2023-05-25T06:18:54;101195.56;;;10.43;100.00
13348;BME280;6743;49.934;9.138;2023-05-25T06:21:20;101196.81;;;10.49;100.00
13348;BME280;6743;49.934;9.138;2023-05-25T06:23:47;101197.50;;;10.60;100.00
13348;BME280;6743;49.934;9.138;2023-05-25T06:26:18;101200.28;;;10.69;100.00
13348;BME280;6743;49.934;9.138;2023-05-25T06:28:44;101197.75;;;10.77;100.00
13348;BME280;6743;49.934;9.138;2023-05-25T06:31:13;101194.94;;;10.88;100.00
13348;BME280;6743;49.934;9.138;2023-05-25T06:33:39;101194.06;;;10.97;100.00
13348;BME280;6743;49.934;9.138;2023-05-25T06:36:06;101195.69;;;11.07;100.00
13348;BME280;6743;49.934;9.138;2023-05-25T06:38:32;101185.59;;;11.21;100.00
13348;BME280;6743;49.934;9.138;2023-05-25T06:40:58;101185.94;;;11.35;100.00
13348;BME280;6743;49.934;9.138;2023-05-25T06:43:29;101174.56;;;11.43;100.00
13348;BME280;6743;49.934;9.138;2023-05-25T06:45:58;101165.34;;;11.47;100.00
13348;BME280;6743;49.934;9.138;2023-05-25T06:48:24;101179.94;;;11.61;100.00
13348;BME280;6743;49.934;9.138;2023-05-25T06:50:50;101166.28;;;11.73;100.00
13348;BME280;6743;49.934;9.138;2023-05-25T06:53:16;101170.56;;;11.84;100.00
13348;BME280;6743;49.934;9.138;2023-05-25T06:55:42;101170.53;;;11.94;100.00
13348;BME280;6743;49.934;9.138;2023-05-25T06:58:08;101179.09;;;12.05;100.00
13348;BME280;6743;49.934;9.138;2023-05-25T07:00:35;101176.00;;;12.10;100.00
13348;BME280;6743;49.934;9.138;2023-05-25T07:03:01;101187.94;;;12.23;100.00
13348;BME280;6743;49.934;9.138;2023-05-25T07:05:27;101190.66;;;12.32;100.00
13348;BME280;6743;49.934;9.138;2023-05-25T07:07:53;101181.91;;;12.39;100.00
13348;BME280;6743;49.934;9.138;2023-05-25T07:10:19;101186.16;;;12.50;100.00
13348;BME280;6743;49.934;9.138;2023-05-25T07:12:45;101179.59;;;12.62;100.00
13348;BME280;6743;49.934;9.138;2023-05-25T07:15:11;101174.94;;;12.90;100.00
13348;BME280;6743;49.934;9.138;2023-05-25T07:17:40;101176.50;;;13.00;100.00
13348;BME280;6743;49.934;9.138;2023-05-25T07:20:07;101174.00;;;13.25;100.00
13348;BME280;6743;49.934;9.138;2023-05-25T07:22:34;101174.88;;;13.33;100.00
13348;BME280;6743;49.934;9.138;2023-05-25T07:25:01;101174.06;;;13.41;100.00
13348;BME280;6743;49.934;9.138;2023-05-25T07:27:28;101179.91;;;13.45;100.00
13348;BME280;6743;49.934;9.138;2023-05-25T07:29:55;101180.09;;;13.51;100.00
13348;BME280;6743;49.934;9.138;2023-05-25T07:32:21;101181.28;;;13.57;100.00
13348;BME280;6743;49.934;9.138;2023-05-25T07:34:48;101187.97;;;13.61;100.00
13348;BME280;6743;49.934;9.138;2023-05-25T07:37:14;101185.34;;;13.77;100.00
13348;BME280;6743;49.934;9.138;2023-05-25T07:39:40;101183.84;;;13.74;100.00
13348;BME280;6743;49.934;9.138;2023-05-25T07:42:06;101185.53;;;13.75;100.00
13348;BME280;6743;49.934;9.138;2023-05-25T07:44:32;101176.69;;;13.91;100.00
13348;BME280;6743;49.934;9.138;2023-05-25T07:46:58;101179.72;;;13.96;100.00
13348;BME280;6743;49.934;9.138;2023-05-25T07:49:24;101189.56;;;14.12;100.00
13348;BME280;6743;49.934;9.138;2023-05-25T07:51:51;101177.41;;;14.17;100.00
13348;BME280;6743;49.934;9.138;2023-05-25T07:54:17;101177.94;;;14.29;100.00
13348;BME280;6743;49.934;9.138;2023-05-25T07:56:43;101170.59;;;14.31;100.00
13348;BME280;6743;49.934;9.138;2023-05-25T07:59:09;101182.47;;;14.45;100.00
13348;BME280;6743;49.934;9.138;2023-05-25T08:01:35;101175.63;;;14.42;100.00
13348;BME280;6743;49.934;9.138;2023-05-25T08:04:01;101178.28;;;14.42;100.00
13348;BME280;6743;49.934;9.138;2023-05-25T08:06:28;101177.94;;;14.45;100.00
13348;BME280;6743;49.934;9.138;2023-05-25T08:08:54;101173.28;;;14.47;100.00
13348;BME280;6743;49.934;9.138;2023-05-25T08:11:22;101178.28;;;14.58;100.00
13348;BME280;6743;49.934;9.138;2023-05-25T08:13:49;101189.44;;;14.70;100.00
13348;BME280;6743;49.934;9.138;2023-05-25T08:16:15;101179.44;;;14.72;100.00
13348;BME280;6743;49.934;9.138;2023-05-25T08:18:41;101181.28;;;14.72;100.00
13348;BME280;6743;49.934;9.138;2023-05-25T08:21:10;101176.25;;;14.77;100.00
13348;BME280;6743;49.934;9.138;2023-05-25T08:23:37;101182.56;;;14.92;100.00
13348;BME280;6743;49.934;9.138;2023-05-25T08:26:07;101168.03;;;14.94;100.00
13348;BME280;6743;49.934;9.138;2023-05-25T08:28:33;101176.72;;;14.96;100.00
13348;BME280;6743;49.934;9.138;2023-05-25T08:30:59;101172.69;;;15.01;100.00
13348;BME280;6743;49.934;9.138;2023-05-25T08:33:25;101176.19;;;15.01;100.00
13348;BME280;6743;49.934;9.138;2023-05-25T08:35:51;101182.34;;;15.10;100.00
13348;BME280;6743;49.934;9.138;2023-05-25T08:38:17;101182.63;;;15.23;100.00
13348;BME280;6743;49.934;9.138;2023-05-25T08:40:44;101172.91;;;15.30;100.00
13348;BME280;6743;49.934;9.138;2023-05-25T08:43:11;101179.59;;;15.34;100.00
13348;BME280;6743;49.934;9.138;2023-05-25T08:45:37;101175.03;;;15.43;100.00
13348;BME280;6743;49.934;9.138;2023-05-25T08:48:07;101166.97;;;15.51;100.00
13348;BME280;6743;49.934;9.138;2023-05-25T08:50:37;101172.75;;;15.70;100.00
13348;BME280;6743;49.934;9.138;2023-05-25T08:53:07;101169.91;;;15.72;100.00
13348;BME280;6743;49.934;9.138;2023-05-25T08:55:38;101178.31;;;15.69;100.00
13348;BME280;6743;49.934;9.138;2023-05-25T08:58:09;101174.81;;;15.68;99.59
13348;BME280;6743;49.934;9.138;2023-05-25T09:00:45;101179.59;;;15.73;98.92
13348;BME280;6743;49.934;9.138;2023-05-25T09:03:16;101169.56;;;15.75;99.80
13348;BME280;6743;49.934;9.138;2023-05-25T09:05:44;101173.16;;;15.90;95.33
13348;BME280;6743;49.934;9.138;2023-05-25T09:08:11;101171.41;;;15.97;97.04
13348;BME280;6743;49.934;9.138;2023-05-25T09:10:38;101175.44;;;16.01;92.30
13348;BME280;6743;49.934;9.138;2023-05-25T09:13:05;101163.06;;;16.00;94.17
13348;BME280;6743;49.934;9.138;2023-05-25T09:15:31;101166.34;;;16.10;98.56
13348;BME280;6743;49.934;9.138;2023-05-25T09:17:58;101174.50;;;16.17;96.75
13348;BME280;6743;49.934;9.138;2023-05-25T09:20:24;101180.31;;;16.21;94.58
13348;BME280;6743;49.934;9.138;2023-05-25T09:22:56;101188.56;;;16.34;88.91
13348;BME280;6743;49.934;9.138;2023-05-25T09:25:22;101176.50;;;16.38;89.65
13348;BME280;6743;49.934;9.138;2023-05-25T09:27:50;101184.16;;;16.41;89.34
13348;BME280;6743;49.934;9.138;2023-05-25T09:30:16;101182.31;;;16.41;97.25
13348;BME280;6743;49.934;9.138;2023-05-25T09:32:46;101173.72;;;16.46;100.00
13348;BME280;6743;49.934;9.138;2023-05-25T09:35:13;101178.00;;;16.55;100.00
13348;BME280;6743;49.934;9.138;2023-05-25T09:37:40;101175.94;;;16.65;100.00
13348;BME280;6743;49.934;9.138;2023-05-25T09:40:07;101188.50;;;16.65;100.00
13348;BME280;6743;49.934;9.138;2023-05-25T09:42:35;101177.00;;;16.56;100.00
13348;BME280;6743;49.934;9.138;2023-05-25T09:45:05;101179.31;;;16.59;100.00
13348;BME280;6743;49.934;9.138;2023-05-25T09:47:31;101175.28;;;16.63;100.00
13348;BME280;6743;49.934;9.138;2023-05-25T09:49:58;101177.62;;;16.66;100.00
13348;BME280;6743;49.934;9.138;2023-05-25T09:52:25;101180.09;;;16.68;100.00
13348;BME280;6743;49.934;9.138;2023-05-25T09:54:52;101178.19;;;16.76;100.00
13348;BME280;6743;49.934;9.138;2023-05-25T09:57:19;101184.47;;;16.83;100.00
13348;BME280;6743;49.934;9.138;2023-05-25T09:59:48;101169.03;;;16.85;100.00
13348;BME280;6743;49.934;9.138;2023-05-25T10:02:15;101184.12;;;16.86;99.80
13348;BME280;6743;49.934;9.138;2023-05-25T10:04:41;101172.19;;;16.89;100.00
13348;BME280;6743;49.934;9.138;2023-05-25T10:07:07;101172.75;;;16.99;100.00
13348;BME280;6743;49.934;9.138;2023-05-25T10:09:38;101177.56;;;17.04;100.00
13348;BME280;6743;49.934;9.138;2023-05-25T10:12:05;101175.69;;;17.04;100.00
13348;BME280;6743;49.934;9.138;2023-05-25T10:14:34;101179.50;;;17.10;100.00
13348;BME280;6743;49.934;9.138;2023-05-25T10:17:03;101175.69;;;17.33;100.00
13348;BME280;6743;49.934;9.138;2023-05-25T10:19:32;101182.44;;;17.29;100.00
13348;BME280;6743;49.934;9.138;2023-05-25T10:22:03;101180.97;;;17.27;100.00
13348;BME280;6743;49.934;9.138;2023-05-25T10:24:38;101181.69;;;17.36;100.00
13348;BME280;6743;49.934;9.138;2023-05-25T10:27:11;101182.53;;;17.36;100.00
13348;BME280;6743;49.934;9.138;2023-05-25T10:29:38;101174.09;;;17.54;100.00
13348;BME280;6743;49.934;9.138;2023-05-25T10:32:05;101184.25;;;17.58;100.00
13348;BME280;6743;49.934;9.138;2023-05-25T10:34:32;101184.44;;;17.71;100.00
13348;BME280;6743;49.934;9.138;2023-05-25T10:37:00;101185.94;;;17.74;99.49
13348;BME280;6743;49.934;9.138;2023-05-25T10:39:28;101182.84;;;17.77;97.96
13348;BME280;6743;49.934;9.138;2023-05-25T10:41:56;101178.97;;;17.80;100.00
13348;BME280;6743;49.934;9.138;2023-05-25T10:44:23;101171.75;;;17.80;100.00
13348;BME280;6743;49.934;9.138;2023-05-25T10:46:50;101172.94;;;17.78;99.53
13348;BME280;6743;49.934;9.138;2023-05-25T10:49:29;101167.78;;;17.76;100.00
13348;BME280;6743;49.934;9.138;2023-05-25T10:51:57;101167.41;;;17.79;100.00
13348;BME280;6743;49.934;9.138;2023-05-25T10:54:28;101179.44;;;17.83;99.89
13348;BME280;6743;49.934;9.138;2023-05-25T10:57:17;101168.50;;;17.85;100.00
13348;BME280;6743;49.934;9.138;2023-05-25T10:59:47;101177.44;;;17.92;99.57
13348;BME280;6743;49.934;9.138;2023-05-25T11:02:13;101169.69;;;17.97;96.71
13348;BME280;6743;49.934;9.138;2023-05-25T11:04:40;101175.66;;;17.99;98.96
13348;BME280;6743;49.934;9.138;2023-05-25T11:07:07;101168.50;;;18.06;100.00
13348;BME280;6743;49.934;9.138;2023-05-25T11:09:40;101170.31;;;18.20;96.70
13348;BME280;6743;49.934;9.138;2023-05-25T11:12:18;101158.47;;;18.15;98.52
13348;BME280;6743;49.934;9.138;2023-05-25T11:15:11;101158.87;;;18.12;98.02
13348;BME280;6743;49.934;9.138;2023-05-25T11:17:56;101151.69;;;18.19;98.86
13348;BME280;6743;49.934;9.138;2023-05-25T11:20:26;101151.00;;;18.31;99.09
13348;BME280;6743;49.934;9.138;2023-05-25T11:22:52;101154.12;;;18.35;96.43
13348;BME280;6743;49.934;9.138;2023-05-25T11:25:37;101151.09;;;18.44;96.69
13348;BME280;6743;49.934;9.138;2023-05-25T11:28:05;101153.84;;;18.51;98.76
13348;BME280;6743;49.934;9.138;2023-05-25T11:30:31;101146.63;;;18.52;95.27
13348;BME280;6743;49.934;9.138;2023-05-25T11:33:00;101147.03;;;18.55;96.10
13348;BME280;6743;49.934;9.138;2023-05-25T11:35:26;101149.31;;;18.52;94.26
13348;BME280;6743;49.934;9.138;2023-05-25T11:37:53;101141.31;;;18.58;94.08
13348;BME280;6743;49.934;9.138;2023-05-25T11:40:21;101142.16;;;18.59;94.37
13348;BME280;6743;49.934;9.138;2023-05-25T11:42:49;101149.81;;;18.62;93.54
13348;BME280;6743;49.934;9.138;2023-05-25T11:45:20;101139.53;;;18.65;95.36
13348;BME280;6743;49.934;9.138;2023-05-25T11:47:46;101136.41;;;18.68;96.85
13348;BME280;6743;49.934;9.138;2023-05-25T11:50:14;101128.44;;;18.81;95.94
13348;BME280;6743;49.934;9.138;2023-05-25T11:52:41;101125.59;;;18.89;92.55
13348;BME280;6743;49.934;9.138;2023-05-25T11:55:10;101125.41;;;18.91;92.83
13348;BME280;6743;49.934;9.138;2023-05-25T11:57:36;101129.00;;;19.05;94.53
13348;BME280;6743;49.934;9.138;2023-05-25T12:00:04;101133.78;;;19.09;92.97
13348;BME280;6743;49.934;9.138;2023-05-25T12:02:36;101122.22;;;19.15;93.75
13348;BME280;6743;49.934;9.138;2023-05-25T12:05:03;101126.00;;;19.21;96.33
13348;BME280;6743;49.934;9.138;2023-05-25T12:07:31;101128.91;;;19.26;93.18
13348;BME280;6743;49.934;9.138;2023-05-25T12:10:04;101121.84;;;19.25;91.17
13348;BME280;6743;49.934;9.138;2023-05-25T12:12:37;101119.16;;;19.25;89.19
13348;BME280;6743;49.934;9.138;2023-05-25T12:15:03;101124.34;;;19.26;89.23
13348;BME280;6743;49.934;9.138;2023-05-25T12:17:29;101111.13;;;19.32;92.13
13348;BME280;6743;49.934;9.138;2023-05-25T12:19:56;101113.69;;;19.46;89.37
13348;BME280;6743;49.934;9.138;2023-05-25T12:22:22;101109.56;;;19.57;89.68
13348;BME280;6743;49.934;9.138;2023-05-25T12:24:48;101090.09;;;19.48;90.18
13348;BME280;6743;49.934;9.138;2023-05-25T12:27:19;101098.41;;;19.60;88.38
13348;BME280;6743;49.934;9.138;2023-05-25T12:29:47;101107.53;;;19.72;88.44
13348;BME280;6743;49.934;9.138;2023-05-25T12:32:14;101104.63;;;19.67;86.53
13348;BME280;6743;49.934;9.138;2023-05-25T12:34:40;101096.38;;;19.69;87.68
13348;BME280;6743;49.934;9.138;2023-05-25T12:37:16;101089.31;;;19.67;86.95
13348;BME280;6743;49.934;9.138;2023-05-25T12:39:42;101086.44;;;19.69;86.25
13348;BME280;6743;49.934;9.138;2023-05-25T12:42:11;101094.31;;;19.77;87.55
13348;BME280;6743;49.934;9.138;2023-05-25T12:44:41;101094.09;;;19.85;85.52
13348;BME280;6743;49.934;9.138;2023-05-25T12:47:12;101101.16;;;19.99;84.91
13348;BME280;6743;49.934;9.138;2023-05-25T12:49:39;101096.22;;;20.03;83.20
13348;BME280;6743;49.934;9.138;2023-05-25T12:52:05;101093.91;;;20.06;83.00
13348;BME280;6743;49.934;9.138;2023-05-25T12:54:34;101086.66;;;20.07;85.28
13348;BME280;6743;49.934;9.138;2023-05-25T12:57:00;101079.03;;;20.11;83.33
13348;BME280;6743;49.934;9.138;2023-05-25T12:59:27;101087.09;;;20.11;83.14